Time;durP1;ratioP1;P1;durP2;ratioP2;P2;SDS_P1;SDS_P2;PMS_P1;PMS_P2;Temp;Humidity;BMP_temperature;BMP_pressure;BME280_temperature;BME280_humidity;BME280_pressure;Samples;Min_cycle;Max_cycle;Signal;HPM_P1;HPM_P2
2023/10/15 00:00:17;;;;;;;0.30;0.20;;;;;;;8.65;89.70;100508.81;4975727;28;20839;-47
2023/10/15 00:02:46;;;;;;;0.30;0.20;;;;;;;8.39;90.34;100513.66;4975704;28;20597;-47
2023/10/15 00:05:15;;;;;;;0.30;0.20;;;;;;;8.44;90.36;100512.66;4976235;28;20450;-47
2023/10/15 00:07:42;;;;;;;0.30;0.20;;;;;;;8.47;90.31;100517.91;4976064;28;20505;-47
2023/10/15 00:10:11;;;;;;;0.30;0.20;;;;;;;8.46;92.06;100513.50;4976061;28;20454;-47
2023/10/15 00:12:42;;;;;;;0.30;0.20;;;;;;;8.63;90.87;100513.22;4975765;28;20894;-47
2023/10/15 00:15:19;;;;;;;0.30;0.20;;;;;;;8.74;90.91;100505.09;4975419;28;20461;-47
2023/10/15 00:17:51;;;;;;;0.30;0.20;;;;;;;8.50;91.02;100501.13;4976094;28;20951;-47
2023/10/15 00:20:19;;;;;;;0.30;0.20;;;;;;;8.34;91.95;100505.75;4975897;28;20500;-47
2023/10/15 00:22:48;;;;;;;0.30;0.20;;;;;;;8.45;91.52;100502.94;4975716;28;20469;-47
2023/10/15 00:25:17;;;;;;;0.30;0.20;;;;;;;8.33;92.54;100502.22;4975766;28;20509;-47
2023/10/15 00:27:52;;;;;;;0.30;0.20;;;;;;;8.25;93.55;100501.47;4975570;28;20451;-47
2023/10/15 00:30:19;;;;;;;0.30;0.20;;;;;;;8.28;94.38;100493.47;4958646;28;20928;-47
2023/10/15 00:32:47;;;;;;;0.30;0.20;;;;;;;8.58;92.96;100502.72;4975423;28;20557;-47
2023/10/15 00:35:21;;;;;;;0.30;0.20;;;;;;;8.66;93.19;100505.25;4975820;28;20450;-47
2023/10/15 00:37:54;;;;;;;0.30;0.20;;;;;;;8.68;92.95;100514.03;4975667;28;20478;-47
2023/10/15 00:40:23;;;;;;;0.30;0.20;;;;;;;8.67;92.28;100507.00;4975462;28;20490;-47
2023/10/15 00:42:51;;;;;;;0.30;0.20;;;;;;;8.65;92.16;100507.94;4975650;28;20474;-47
2023/10/15 00:45:19;;;;;;;0.30;0.20;;;;;;;8.67;91.93;100498.19;4975536;28;20454;-47
2023/10/15 00:48:00;;;;;;;0.30;0.20;;;;;;;8.15;93.44;100504.28;4975471;28;20450;-47
2023/10/15 00:50:31;;;;;;;0.30;0.20;;;;;;;8.25;92.46;100498.81;4975402;28;20447;-47
2023/10/15 00:53:04;;;;;;;0.30;0.20;;;;;;;8.03;93.45;100500.91;4975247;28;20509;-48
2023/10/15 00:55:35;;;;;;;0.30;0.20;;;;;;;8.10;93.10;100512.31;4975381;28;20450;-47
2023/10/15 00:58:09;;;;;;;0.30;0.20;;;;;;;8.11;92.84;100505.25;4975302;28;20501;-47
2023/10/15 01:00:52;;;;;;;0.30;0.20;;;;;;;8.07;92.38;100499.09;4974599;28;20490;-47
2023/10/15 01:03:30;;;;;;;0.30;0.20;;;;;;;8.12;91.68;100496.41;4975060;28;20450;-47
2023/10/15 01:06:00;;;;;;;0.30;0.20;;;;;;;8.21;91.82;100493.59;4975499;28;20457;-47
2023/10/15 01:08:35;;;;;;;0.30;0.20;;;;;;;8.16;91.94;100492.78;4975001;28;20456;-48
2023/10/15 01:11:11;;;;;;;0.30;0.20;;;;;;;7.97;91.44;100497.50;4974889;28;21048;-46
2023/10/15 01:13:38;;;;;;;0.30;0.20;;;;;;;8.07;92.51;100504.38;4962287;28;20461;-47
2023/10/15 01:16:08;;;;;;;0.30;0.20;;;;;;;8.19;92.03;100503.31;4974972;28;20451;-47
2023/10/15 01:18:37;;;;;;;0.30;0.20;;;;;;;7.99;91.99;100501.00;4974910;28;20450;-47
2023/10/15 01:21:09;;;;;;;0.30;0.20;;;;;;;7.77;92.10;100504.81;4974682;28;20577;-47
2023/10/15 01:26:23;;;;;;;0.30;0.20;;;;;;;7.80;92.18;100510.06;4973665;28;20932;-47
2023/10/15 01:28:51;;;;;;;0.30;0.20;;;;;;;7.78;91.92;100512.75;4974799;28;20549;-47
2023/10/15 01:31:18;;;;;;;0.30;0.20;;;;;;;7.77;92.07;100507.47;4974645;28;20557;-46
2023/10/15 01:33:48;;;;;;;0.30;0.20;;;;;;;7.26;91.90;100509.88;4974440;28;20546;-46
2023/10/15 01:36:21;;;;;;;0.30;0.20;;;;;;;7.26;93.58;100502.81;4974434;28;20457;-47
2023/10/15 01:38:55;;;;;;;0.30;0.20;;;;;;;7.47;93.17;100499.06;4974364;28;20542;-47
2023/10/15 01:41:25;;;;;;;0.30;0.20;;;;;;;7.17;93.37;100494.13;4974616;28;20501;-47
2023/10/15 01:43:53;;;;;;;0.30;0.20;;;;;;;7.13;94.50;100498.59;4974358;28;20450;-47
2023/10/15 01:49:07;;;;;;;0.30;0.20;;;;;;;7.23;93.93;100501.97;4974190;28;20956;-47
2023/10/15 01:51:39;;;;;;;0.30;0.20;;;;;;;7.30;93.58;100501.91;4974277;28;20466;-47
2023/10/15 01:54:09;;;;;;;0.30;0.20;;;;;;;7.34;93.69;100498.31;4974319;28;20453;-47
2023/10/15 01:56:44;;;;;;;0.30;0.20;;;;;;;7.32;92.75;100492.19;4974102;28;20947;-47
2023/10/15 01:59:11;;;;;;;0.30;0.20;;;;;;;7.25;93.70;100493.13;4964017;28;20453;-47
2023/10/15 02:01:41;;;;;;;0.30;0.20;;;;;;;7.27;94.10;100486.09;4973624;28;20504;-46
2023/10/15 02:04:26;;;;;;;0.30;0.20;;;;;;;7.35;93.66;100494.78;4974063;28;20486;-47
2023/10/15 02:06:53;;;;;;;0.30;0.20;;;;;;;7.56;93.35;100495.44;4974233;28;20546;-47
2023/10/15 02:09:23;;;;;;;0.30;0.20;;;;;;;7.54;93.07;100498.09;4974071;28;20937;-47
2023/10/15 02:11:54;;;;;;;0.30;0.20;;;;;;;7.62;94.03;100493.56;4973652;28;20497;-47
2023/10/15 02:14:27;;;;;;;0.30;0.20;;;;;;;7.63;93.49;100489.16;4973891;28;20925;-47
2023/10/15 02:16:54;;;;;;;0.30;0.20;;;;;;;7.66;92.93;100497.91;4974138;28;20962;-47
2023/10/15 02:19:40;;;;;;;0.30;0.20;;;;;;;7.69;93.96;100494.38;4973946;28;20500;-47
2023/10/15 02:22:14;;;;;;;0.30;0.20;;;;;;;7.72;93.17;100491.69;4963972;28;20470;-47
2023/10/15 02:24:48;;;;;;;0.30;0.20;;;;;;;7.77;94.23;100491.59;4973870;28;20529;-47
2023/10/15 02:27:30;;;;;;;0.30;0.20;;;;;;;7.70;94.99;100485.53;4974032;28;20471;-47
2023/10/15 02:29:56;;;;;;;0.30;0.20;;;;;;;7.72;94.44;100486.38;4961894;28;20446;-47
2023/10/15 02:32:30;;;;;;;0.30;0.20;;;;;;;7.62;96.80;100479.47;4973443;28;20557;-47
2023/10/15 02:35:05;;;;;;;0.30;0.20;;;;;;;7.88;96.15;100484.38;4973612;28;20456;-47
2023/10/15 02:37:32;;;;;;;0.30;0.20;;;;;;;8.02;95.62;100480.63;4973707;28;20454;-47
2023/10/15 02:39:59;;;;;;;0.30;0.20;;;;;;;7.97;95.64;100478.97;4973735;28;20461;-47
2023/10/15 02:42:33;;;;;;;0.30;0.20;;;;;;;7.94;95.74;100477.22;4973500;28;20470;-47
2023/10/15 02:45:01;;;;;;;0.30;0.20;;;;;;;8.08;95.40;100478.78;4973594;28;20875;-47
2023/10/15 02:47:31;;;;;;;0.30;0.20;;;;;;;8.03;95.01;100470.94;4973416;28;20529;-46
2023/10/15 02:50:02;;;;;;;0.30;0.20;;;;;;;8.12;94.54;100477.88;4973456;28;20457;-47
2023/10/15 02:52:35;;;;;;;0.30;0.20;;;;;;;8.11;94.64;100481.41;4973649;28;20482;-47
2023/10/15 02:55:10;;;;;;;0.30;0.20;;;;;;;8.17;94.85;100486.59;4973949;28;20446;-47
2023/10/15 02:57:41;;;;;;;0.30;0.20;;;;;;;8.19;94.72;100501.56;4961606;28;20445;-47
2023/10/15 03:02:55;;;;;;;0.30;0.20;;;;;;;7.89;95.21;100491.44;4973298;28;20518;-47
2023/10/15 03:05:30;;;;;;;0.30;0.20;;;;;;;7.86;96.49;100494.13;4973588;28;20533;-47
2023/10/15 03:08:00;;;;;;;0.30;0.20;;;;;;;7.92;95.90;100497.53;4973337;28;20451;-47
2023/10/15 03:10:48;;;;;;;0.30;0.20;;;;;;;7.86;96.61;100497.66;4973371;28;20478;-49
2023/10/15 03:13:14;;;;;;;0.30;0.20;;;;;;;7.69;97.11;100494.38;4973581;28;20509;-50
2023/10/15 03:15:50;;;;;;;0.30;0.20;;;;;;;7.77;96.33;100497.75;4973432;28;20478;-47
2023/10/15 03:18:23;;;;;;;0.30;0.20;;;;;;;7.93;96.46;100493.13;4973486;28;20450;-46
2023/10/15 03:21:15;;;;;;;0.30;0.20;;;;;;;7.54;97.72;100490.16;4973210;28;20505;-47
2023/10/15 03:23:39;;;;;;;0.30;0.20;;;;;;;7.62;96.78;100497.97;4962533;28;20537;-50
2023/10/15 03:26:06;;;;;;;0.30;0.20;;;;;;;7.78;97.07;100491.56;4973135;28;20951;-47
2023/10/15 03:28:34;;;;;;;0.30;0.20;;;;;;;7.76;97.87;100493.38;4973602;28;20526;-49
2023/10/15 03:31:01;;;;;;;0.30;0.20;;;;;;;7.83;97.06;100500.34;4973133;28;20466;-49
2023/10/15 03:33:30;;;;;;;0.30;0.20;;;;;;;7.52;97.66;100496.34;4973351;28;20454;-47
2023/10/15 03:35:57;;;;;;;0.30;0.20;;;;;;;7.67;97.08;100501.41;4973000;28;20948;-47
2023/10/15 03:38:24;;;;;;;0.30;0.20;;;;;;;7.62;96.57;100500.63;4973504;28;20509;-47
2023/10/15 03:40:50;;;;;;;0.30;0.20;;;;;;;7.04;97.24;100514.53;4973417;28;20882;-47
2023/10/15 03:43:20;;;;;;;0.30;0.20;;;;;;;7.12;98.46;100505.63;4972981;28;20454;-47
2023/10/15 03:45:50;;;;;;;0.30;0.20;;;;;;;7.28;97.76;100511.63;4972787;28;20454;-47
2023/10/15 03:48:22;;;;;;;0.30;0.20;;;;;;;7.43;97.37;100511.44;4973224;28;20458;-48
2023/10/15 03:50:54;;;;;;;0.30;0.20;;;;;;;7.70;96.35;100506.69;4976041;28;21058;-47
2023/10/15 03:53:22;;;;;;;0.30;0.20;;;;;;;7.60;95.72;100508.59;4976588;28;20453;-47
2023/10/15 03:55:49;;;;;;;0.30;0.20;;;;;;;7.38;95.99;100504.44;4976368;28;20458;-47
2023/10/15 03:58:18;;;;;;;0.30;0.20;;;;;;;7.43;96.06;100506.16;4976151;28;20455;-47
2023/10/15 04:00:48;;;;;;;0.30;0.20;;;;;;;7.30;95.93;100512.47;4975886;28;20490;-47
2023/10/15 04:03:22;;;;;;;0.30;0.20;;;;;;;7.18;96.10;100507.34;4976267;28;20455;-47
2023/10/15 04:05:53;;;;;;;0.30;0.20;;;;;;;7.22;95.69;100503.75;4976441;28;20470;-47
2023/10/15 04:08:20;;;;;;;0.30;0.20;;;;;;;7.08;95.19;100509.19;4976168;28;20450;-47
2023/10/15 04:10:55;;;;;;;0.30;0.20;;;;;;;6.95;94.81;100506.69;4975887;28;20485;-47
2023/10/15 04:13:22;;;;;;;0.30;0.20;;;;;;;6.90;95.02;100506.75;4975928;28;20493;-47
2023/10/15 04:15:49;;;;;;;0.30;0.20;;;;;;;6.79;94.74;100505.97;4976147;28;20481;-47
2023/10/15 04:18:22;;;;;;;0.30;0.20;;;;;;;6.73;94.47;100504.28;4976069;28;20457;-47
2023/10/15 04:20:51;;;;;;;0.30;0.20;;;;;;;6.76;93.73;100493.69;4975754;28;22351;-47
2023/10/15 04:23:34;;;;;;;0.30;0.20;;;;;;;6.71;94.23;100500.75;4975756;28;20474;-47
2023/10/15 04:26:14;;;;;;;0.30;0.20;;;;;;;6.36;94.65;100502.84;4975975;28;20446;-48
2023/10/15 04:28:41;;;;;;;0.30;0.20;;;;;;;6.39;94.28;100505.47;4975788;28;20935;-47
2023/10/15 04:31:11;;;;;;;0.30;0.20;;;;;;;6.28;94.23;100512.56;4975612;28;20835;-47
2023/10/15 04:33:41;;;;;;;0.30;0.20;;;;;;;6.19;94.53;100513.53;4975588;28;20823;-47
2023/10/15 04:36:09;;;;;;;0.30;0.20;;;;;;;6.20;94.28;100512.66;4975699;28;20447;-47
2023/10/15 04:38:37;;;;;;;0.30;0.20;;;;;;;6.39;94.00;100508.09;4975697;28;20456;-47
2023/10/15 04:41:04;;;;;;;0.30;0.20;;;;;;;6.19;93.46;100513.53;4975430;28;20505;-47
2023/10/15 04:43:41;;;;;;;0.30;0.20;;;;;;;6.08;92.94;100516.25;4975696;28;20450;-47
2023/10/15 04:46:08;;;;;;;0.30;0.20;;;;;;;6.02;93.20;100512.75;4963811;28;20994;-47
2023/10/15 04:48:36;;;;;;;0.30;0.20;;;;;;;5.83;93.42;100517.25;4975660;28;20450;-48
2023/10/15 04:51:15;;;;;;;0.30;0.20;;;;;;;5.83;95.04;100517.25;4958109;28;20983;-47
2023/10/15 04:53:44;;;;;;;0.30;0.20;;;;;;;5.74;94.59;100512.00;4975306;28;20452;-48
2023/10/15 04:56:12;;;;;;;0.30;0.20;;;;;;;5.89;94.99;100515.47;4975257;28;20828;-48
2023/10/15 04:58:39;;;;;;;0.30;0.20;;;;;;;5.82;94.39;100512.84;4974872;28;20851;-47
2023/10/15 05:01:07;;;;;;;0.30;0.20;;;;;;;5.82;94.66;100519.00;4973704;28;20569;-47
2023/10/15 05:03:36;;;;;;;0.30;0.20;;;;;;;5.82;94.00;100519.00;4975246;28;20447;-47
2023/10/15 05:06:06;;;;;;;0.30;0.20;;;;;;;5.78;93.45;100519.91;4975082;28;20871;-47
2023/10/15 05:08:35;;;;;;;0.30;0.20;;;;;;;5.74;93.21;100525.19;4975017;28;20820;-47
2023/10/15 05:11:01;;;;;;;0.30;0.20;;;;;;;5.65;93.32;100524.38;4975034;28;20477;-48
2023/10/15 05:13:28;;;;;;;0.30;0.20;;;;;;;5.61;93.59;100525.25;4975028;28;20455;-47
2023/10/15 05:15:56;;;;;;;0.30;0.20;;;;;;;5.79;94.54;100518.16;4975017;28;20462;-57
2023/10/15 05:18:23;;;;;;;0.30;0.20;;;;;;;5.85;94.84;100520.75;4974984;28;20524;-46
2023/10/15 05:20:50;;;;;;;0.30;0.20;;;;;;;5.72;94.57;100524.34;4974636;28;20542;-47
2023/10/15 05:23:18;;;;;;;0.30;0.20;;;;;;;5.68;95.12;100519.97;4961947;28;21038;-46
2023/10/15 05:25:45;;;;;;;0.30;0.20;;;;;;;5.70;95.36;100526.97;4974482;28;20510;-48
2023/10/15 05:28:14;;;;;;;0.30;0.20;;;;;;;5.81;94.93;100526.94;4974602;28;20819;-47
2023/10/15 05:30:42;;;;;;;0.30;0.20;;;;;;;5.60;93.68;100528.78;4974598;28;20477;-47
2023/10/15 05:33:09;;;;;;;0.30;0.20;;;;;;;5.65;95.08;100534.06;4975246;28;20456;-47
2023/10/15 05:35:37;;;;;;;0.30;0.20;;;;;;;5.75;95.30;100542.78;4974873;28;20541;-47
2023/10/15 05:38:09;;;;;;;0.30;0.20;;;;;;;5.76;95.29;100542.78;4974381;28;20455;-47
2023/10/15 05:40:37;;;;;;;0.30;0.20;;;;;;;5.88;96.36;100539.19;4974450;28;20457;-47
2023/10/15 05:43:07;;;;;;;0.30;0.20;;;;;;;5.77;95.09;100538.41;4974513;28;20473;-48
2023/10/15 05:45:33;;;;;;;0.30;0.20;;;;;;;5.83;94.76;100547.13;4974395;28;20454;-48
2023/10/15 05:48:00;;;;;;;0.30;0.20;;;;;;;5.75;95.05;100540.13;4974424;28;20457;-47
2023/10/15 05:50:27;;;;;;;0.30;0.20;;;;;;;5.76;95.02;100545.44;4973884;28;20455;-47
2023/10/15 05:52:54;;;;;;;0.30;0.20;;;;;;;5.73;95.88;100534.88;4973977;28;20474;-47
2023/10/15 05:55:20;;;;;;;0.30;0.20;;;;;;;5.76;94.73;100541.91;4974322;28;20537;-47
2023/10/15 05:57:47;;;;;;;0.30;0.20;;;;;;;5.89;94.05;100548.84;4974299;28;20465;-49
2023/10/15 06:00:17;;;;;;;0.30;0.20;;;;;;;6.07;94.57;100550.56;4974005;28;20452;-47
2023/10/15 06:02:45;;;;;;;0.30;0.20;;;;;;;5.60;95.36;100552.50;4973893;28;20544;-47
2023/10/15 06:05:13;;;;;;;0.30;0.20;;;;;;;5.86;95.99;100549.75;4973931;28;20450;-47
2023/10/15 06:07:41;;;;;;;0.30;0.20;;;;;;;6.02;94.92;100554.97;4974090;28;20545;-47
2023/10/15 06:10:08;;;;;;;0.30;0.20;;;;;;;6.08;95.63;100553.19;4973707;28;20545;-47
2023/10/15 06:12:40;;;;;;;0.30;0.20;;;;;;;6.22;95.98;100561.03;4973358;28;20471;-47
2023/10/15 06:15:08;;;;;;;0.30;0.20;;;;;;;5.87;95.69;100554.13;4973757;28;20549;-47
2023/10/15 06:17:35;;;;;;;0.30;0.20;;;;;;;6.07;96.76;100559.34;4973897;28;20450;-47
2023/10/15 06:20:12;;;;;;;0.30;0.20;;;;;;;6.41;96.17;100562.63;4973742;28;20509;-49
2023/10/15 06:22:44;;;;;;;0.30;0.20;;;;;;;6.15;98.52;100573.38;4973733;28;20551;-49
2023/10/15 06:25:12;;;;;;;0.30;0.20;;;;;;;6.50;98.61;100577.53;4973791;28;20458;-56
2023/10/15 06:27:39;;;;;;;0.30;0.20;;;;;;;6.75;98.24;100576.47;4973726;28;20494;-51
2023/10/15 06:30:14;;;;;;;0.30;0.20;;;;;;;6.51;99.02;100574.00;4973601;28;20905;-49
2023/10/15 06:32:48;;;;;;;0.30;0.20;;;;;;;6.84;100.00;100560.50;4973688;28;20462;-48
2023/10/15 06:35:22;;;;;;;0.30;0.20;;;;;;;7.08;98.95;100577.03;4973974;28;20454;-55
2023/10/15 06:37:57;;;;;;;0.30;0.20;;;;;;;7.08;99.61;100574.41;4973829;28;20461;-48
2023/10/15 06:40:26;;;;;;;0.30;0.20;;;;;;;7.21;98.85;100572.50;4973806;28;20860;-53
2023/10/15 06:42:59;;;;;;;0.30;0.20;;;;;;;7.36;99.60;100573.22;4973240;28;20494;-47
2023/10/15 06:45:27;;;;;;;0.30;0.20;;;;;;;7.47;98.41;100573.09;4973408;28;20446;-47
2023/10/15 06:47:54;;;;;;;0.30;0.20;;;;;;;7.46;99.79;100589.00;4973662;28;20546;-49
2023/10/15 06:50:24;;;;;;;0.30;0.20;;;;;;;7.53;98.83;100582.72;4973421;28;20458;-49
2023/10/15 06:52:53;;;;;;;0.30;0.20;;;;;;;7.64;98.73;100588.78;4973095;28;20848;-49
2023/10/15 06:55:20;;;;;;;0.30;0.20;;;;;;;7.69;98.52;100582.56;4955963;28;20464;-49
2023/10/15 06:57:48;;;;;;;0.30;0.20;;;;;;;7.90;99.00;100589.31;4973703;28;20458;-53
2023/10/15 07:00:21;;;;;;;0.30;0.20;;;;;;;7.87;99.28;100583.22;4973207;28;20513;-49
2023/10/15 07:02:49;;;;;;;0.30;0.20;;;;;;;7.94;99.38;100588.38;4973040;28;20498;-49
2023/10/15 07:05:16;;;;;;;0.30;0.20;;;;;;;8.16;99.39;100596.06;4973230;28;20451;-49
2023/10/15 07:07:45;;;;;;;0.30;0.20;;;;;;;8.28;99.71;100591.47;4973555;28;20541;-49
2023/10/15 07:10:16;;;;;;;0.30;0.20;;;;;;;8.39;98.84;100598.41;4973475;28;20473;-49
2023/10/15 07:12:47;;;;;;;0.30;0.20;;;;;;;8.59;98.91;100596.31;4973359;28;20470;-49
2023/10/15 07:15:15;;;;;;;0.30;0.20;;;;;;;8.66;98.11;100597.13;4960297;28;20932;-50
2023/10/15 07:17:43;;;;;;;0.30;0.20;;;;;;;8.80;97.57;100589.81;4973134;28;20825;-50
2023/10/15 07:20:14;;;;;;;0.30;0.20;;;;;;;8.95;96.71;100594.00;4973014;28;20454;-50
2023/10/15 07:22:53;;;;;;;0.30;0.20;;;;;;;9.11;96.15;100592.81;4973125;28;20494;-49
2023/10/15 07:25:21;;;;;;;0.30;0.20;;;;;;;9.16;96.18;100609.50;4975889;28;20541;-49
2023/10/15 07:27:49;;;;;;;0.30;0.20;;;;;;;9.36;94.81;100607.38;4959828;28;20864;-49
2023/10/15 07:30:19;;;;;;;0.30;0.20;;;;;;;9.41;94.04;100601.97;4976686;28;20549;-50
2023/10/15 07:32:46;;;;;;;0.30;0.20;;;;;;;9.46;92.90;100595.72;4959293;28;20549;-50
2023/10/15 07:35:14;;;;;;;0.30;0.20;;;;;;;9.60;92.99;100594.56;4976883;28;20492;-49
2023/10/15 07:37:43;;;;;;;0.30;0.20;;;;;;;9.71;91.94;100598.72;4976677;28;20461;-49
2023/10/15 07:40:17;;;;;;;0.30;0.20;;;;;;;9.71;91.75;100604.03;4976855;28;20554;-49
2023/10/15 07:42:50;;;;;;;0.30;0.20;;;;;;;9.80;93.56;100603.88;4963581;28;20494;-50
2023/10/15 07:45:17;;;;;;;0.30;0.20;;;;;;;9.92;92.21;100609.84;4976347;28;20454;-48
2023/10/15 07:47:45;;;;;;;0.30;0.20;;;;;;;9.92;92.37;100605.41;4976763;28;20450;-50
2023/10/15 07:50:13;;;;;;;0.30;0.20;;;;;;;10.05;91.15;100606.00;4976340;28;20516;-48
2023/10/15 07:52:40;;;;;;;0.30;0.20;;;;;;;10.16;91.00;100611.09;4976269;28;20557;-54
2023/10/15 07:55:10;;;;;;;0.30;0.20;;;;;;;10.05;90.48;100614.84;4976142;28;20537;-48
2023/10/15 07:57:40;;;;;;;0.30;0.20;;;;;;;9.93;90.65;100614.25;4976069;28;20450;-48
2023/10/15 08:00:09;;;;;;;0.30;0.20;;;;;;;9.99;91.18;100622.06;4975745;28;20461;-48
2023/10/15 08:02:35;;;;;;;0.30;0.20;;;;;;;10.01;91.55;100621.16;4975965;28;20502;-50
2023/10/15 08:05:02;;;;;;;0.30;0.20;;;;;;;10.07;91.37;100628.09;4976084;28;20453;-48
2023/10/15 08:07:34;;;;;;;0.30;0.20;;;;;;;10.07;91.29;100628.09;4975903;28;20942;-48
2023/10/15 08:10:01;;;;;;;0.30;0.20;;;;;;;10.13;90.87;100629.75;4975928;28;20482;-48
2023/10/15 08:12:28;;;;;;;0.40;0.20;;;;;;;10.24;90.23;100625.09;4975944;28;20463;-48
2023/10/15 08:14:55;;;;;;;0.30;0.20;;;;;;;10.23;90.45;100636.66;4976012;28;20465;-48
2023/10/15 08:17:23;;;;;;;0.30;0.20;;;;;;;10.24;89.96;100636.59;4976117;28;20549;-48
2023/10/15 08:19:51;;;;;;;0.30;0.20;;;;;;;10.42;88.49;100643.31;4975705;28;20462;-49
2023/10/15 08:22:17;;;;;;;0.30;0.20;;;;;;;10.92;87.57;100634.16;4975629;28;20508;-48
2023/10/15 08:24:44;;;;;;;0.30;0.20;;;;;;;10.78;87.05;100638.06;4975524;28;20474;-49
2023/10/15 08:27:13;;;;;;;0.30;0.20;;;;;;;10.85;86.85;100635.22;4975641;28;20964;-48
2023/10/15 08:29:41;;;;;;;0.30;0.20;;;;;;;11.14;86.26;100634.50;4975809;28;20454;-48
2023/10/15 08:32:18;;;;;;;0.30;0.20;;;;;;;10.98;86.34;100626.03;4975658;28;20466;-48
2023/10/15 08:34:45;;;;;;;0.30;0.20;;;;;;;11.10;86.28;100640.81;4963807;28;20995;-48
2023/10/15 08:37:12;;;;;;;0.30;0.20;;;;;;;11.29;86.03;100641.22;4975440;28;20481;-50
2023/10/15 08:39:39;;;;;;;0.30;0.20;;;;;;;11.31;85.66;100639.38;4975491;28;20459;-48
2023/10/15 08:42:20;;;;;;;0.30;0.20;;;;;;;11.50;84.51;100637.09;4975374;28;21020;-48
2023/10/15 08:44:56;;;;;;;0.30;0.20;;;;;;;11.69;83.84;100640.16;4975604;28;20536;-48
2023/10/15 08:47:25;;;;;;;0.30;0.20;;;;;;;12.02;82.33;100641.00;4975361;28;21011;-48
2023/10/15 08:49:53;;;;;;;0.40;0.20;;;;;;;11.99;82.08;100638.44;4975211;28;20477;-48
2023/10/15 08:52:20;;;;;;;0.40;0.33;;;;;;;12.03;82.22;100640.09;4974941;28;21014;-49
2023/10/15 08:54:46;;;;;;;0.30;0.20;;;;;;;12.34;80.70;100632.09;4975404;28;20469;-48
2023/10/15 08:57:18;;;;;;;0.30;0.20;;;;;;;12.06;81.51;100640.91;4975307;28;20454;-48
2023/10/15 08:59:45;;;;;;;0.40;0.30;;;;;;;12.23;80.43;100643.06;4975248;28;20469;-48
2023/10/15 09:02:13;;;;;;;0.40;0.20;;;;;;;12.23;81.12;100639.53;4974755;28;20597;-51
2023/10/15 09:04:47;;;;;;;0.53;0.47;;;;;;;12.06;81.47;100634.66;4974965;28;20577;-49
2023/10/15 09:07:17;;;;;;;0.40;0.20;;;;;;;12.13;80.98;100650.44;4975213;28;20461;-48
2023/10/15 09:09:44;;;;;;;0.40;0.20;;;;;;;11.90;78.69;100642.22;4974930;28;20454;-48
2023/10/15 09:12:12;;;;;;;0.30;0.20;;;;;;;11.60;78.33;100657.25;4972923;28;20470;-48
2023/10/15 09:14:44;;;;;;;0.30;0.20;;;;;;;11.49;78.54;100640.69;4971959;28;20451;-47
2023/10/15 09:17:16;;;;;;;0.30;0.20;;;;;;;11.54;78.48;100660.94;4970898;28;20820;-48
2023/10/15 09:19:46;;;;;;;0.30;0.20;;;;;;;11.47;78.77;100666.47;4974331;28;20505;-48
2023/10/15 09:22:15;;;;;;;0.30;0.20;;;;;;;11.68;78.23;100665.91;4974186;28;20490;-48
2023/10/15 09:24:42;;;;;;;0.30;0.20;;;;;;;12.19;77.49;100662.72;4974546;28;20451;-48
2023/10/15 09:27:09;;;;;;;0.30;0.20;;;;;;;12.48;74.71;100661.88;4974793;28;20450;-48
2023/10/15 09:29:35;;;;;;;0.30;0.20;;;;;;;12.64;73.11;100660.47;4974448;28;20461;-48
2023/10/15 09:32:04;;;;;;;0.30;0.20;;;;;;;12.79;72.75;100660.91;4974692;28;20477;-48
2023/10/15 09:34:32;;;;;;;0.30;0.20;;;;;;;12.84;71.63;100662.50;4974627;28;20456;-48
2023/10/15 09:36:59;;;;;;;0.30;0.20;;;;;;;12.81;71.83;100661.72;4974545;28;20512;-48
2023/10/15 09:39:27;;;;;;;0.30;0.20;;;;;;;12.74;72.16;100669.03;4974408;28;20490;-49
2023/10/15 09:41:55;;;;;;;0.30;0.20;;;;;;;12.60;71.87;100673.94;4974812;28;20558;-51
2023/10/15 09:44:23;;;;;;;0.30;0.20;;;;;;;12.65;71.63;100666.69;4974517;28;20457;-51
2023/10/15 09:46:50;;;;;;;0.30;0.20;;;;;;;12.72;71.17;100673.56;4973787;28;20494;-52
2023/10/15 09:49:18;;;;;;;0.30;0.20;;;;;;;12.84;71.83;100675.84;4974130;28;20566;-52
2023/10/15 09:51:47;;;;;;;0.30;0.20;;;;;;;13.10;70.65;100674.13;4973758;28;20991;-52
2023/10/15 09:54:19;;;;;;;0.40;0.20;;;;;;;13.34;69.33;100682.25;4973971;28;20513;-52
2023/10/15 09:56:47;;;;;;;0.40;0.20;;;;;;;13.86;67.71;100680.44;4973867;28;20462;-52
2023/10/15 09:59:15;;;;;;;0.30;0.20;;;;;;;13.85;66.79;100680.50;4974207;28;20455;-52
2023/10/15 10:01:47;;;;;;;0.30;0.20;;;;;;;13.99;65.30;100678.19;4973775;28;20860;-52
2023/10/15 10:04:40;;;;;;;0.40;0.20;;;;;;;14.02;65.90;100680.75;4974029;28;20512;-52
2023/10/15 10:07:20;;;;;;;0.30;0.20;;;;;;;13.97;64.99;100684.50;4973998;28;20489;-52
2023/10/15 10:10:02;;;;;;;0.40;0.20;;;;;;;13.91;63.70;100689.16;4973878;28;20454;-51
2023/10/15 10:12:43;;;;;;;0.40;0.20;;;;;;;13.67;64.70;100692.69;4973721;28;20466;-52
2023/10/15 10:15:30;;;;;;;0.40;0.20;;;;;;;13.78;63.29;100677.16;4973649;28;20809;-51
2023/10/15 10:17:59;;;;;;;0.30;0.20;;;;;;;13.76;62.94;100681.69;4973686;28;20460;-51
2023/10/15 10:20:33;;;;;;;0.30;0.20;;;;;;;14.07;62.00;100672.56;4973758;28;20455;-52
2023/10/15 10:23:05;;;;;;;0.40;0.20;;;;;;;14.08;62.00;100672.50;4973482;28;20487;-50
2023/10/15 10:25:45;;;;;;;0.30;0.20;;;;;;;14.04;60.66;100670.00;4973753;28;20453;-50
2023/10/15 10:28:15;;;;;;;0.40;0.20;;;;;;;14.20;59.70;100669.38;4974067;28;20450;-51
2023/10/15 10:30:58;;;;;;;0.40;0.20;;;;;;;14.55;60.43;100669.88;4973680;28;20490;-51
2023/10/15 10:33:41;;;;;;;0.40;0.20;;;;;;;14.38;59.01;100666.91;4973755;28;20450;-51
2023/10/15 10:36:15;;;;;;;0.40;0.20;;;;;;;14.86;58.26;100663.31;4973349;28;20481;-51
2023/10/15 10:38:42;;;;;;;0.40;0.20;;;;;;;14.63;57.67;100661.53;4973804;28;20449;-51
2023/10/15 10:41:14;;;;;;;0.40;0.20;;;;;;;14.87;54.81;100654.34;4960871;28;20561;-48
2023/10/15 10:43:53;;;;;;;0.40;0.20;;;;;;;14.86;52.93;100665.97;4973441;28;20490;-48
2023/10/15 10:46:41;;;;;;;0.40;0.20;;;;;;;14.58;55.96;100661.72;4973282;28;20955;-48
2023/10/15 10:49:13;;;;;;;0.40;0.20;;;;;;;14.79;56.90;100658.19;4973340;28;20461;-50
2023/10/15 10:51:41;;;;;;;0.40;0.20;;;;;;;14.99;56.60;100657.41;4973642;28;20477;-48
2023/10/15 10:54:08;;;;;;;0.40;0.20;;;;;;;14.93;54.92;100668.34;4973474;28;21015;-48
2023/10/15 10:56:40;;;;;;;0.40;0.20;;;;;;;14.23;53.98;100665.69;4973488;28;20533;-48
2023/10/15 10:59:09;;;;;;;0.40;0.20;;;;;;;14.19;54.80;100658.72;4964932;28;20450;-48
2023/10/15 11:01:41;;;;;;;0.40;0.20;;;;;;;13.83;56.38;100658.28;4977262;28;20488;-48
2023/10/15 11:04:09;;;;;;;0.40;0.20;;;;;;;14.12;55.90;100660.78;4977483;28;21023;-48
2023/10/15 11:06:37;;;;;;;0.40;0.20;;;;;;;14.22;55.21;100658.63;4977393;28;20454;-48
2023/10/15 11:09:09;;;;;;;0.40;0.20;;;;;;;14.65;55.22;100660.53;4977338;28;20532;-48
2023/10/15 11:11:35;;;;;;;0.40;0.20;;;;;;;14.77;54.07;100664.53;4976991;28;20470;-48
2023/10/15 11:14:03;;;;;;;0.40;0.20;;;;;;;14.91;52.92;100650.59;4977535;28;20474;-48
2023/10/15 11:16:32;;;;;;;0.40;0.20;;;;;;;14.81;51.99;100652.78;4977198;28;20501;-48
2023/10/15 11:18:58;;;;;;;0.40;0.20;;;;;;;14.92;53.43;100657.69;4977404;28;20461;-48
2023/10/15 11:21:25;;;;;;;0.40;0.20;;;;;;;14.61;54.88;100658.06;4977076;28;20509;-48
2023/10/15 11:23:53;;;;;;;0.40;0.20;;;;;;;14.91;55.03;100654.16;4976947;28;20574;-51
2023/10/15 11:26:20;;;;;;;0.40;0.20;;;;;;;14.74;54.55;100659.31;4976754;28;20975;-48
2023/10/15 11:28:46;;;;;;;0.40;0.20;;;;;;;15.09;53.01;100658.75;4977020;28;20450;-48
2023/10/15 11:31:13;;;;;;;0.40;0.20;;;;;;;15.13;53.69;100655.97;4976902;28;20470;-50
2023/10/15 11:33:39;;;;;;;0.40;0.20;;;;;;;15.01;53.82;100655.53;4976671;28;20948;-49
2023/10/15 11:36:09;;;;;;;0.40;0.20;;;;;;;14.85;54.78;100667.78;4976577;28;20533;-49
2023/10/15 11:38:37;;;;;;;0.40;0.20;;;;;;;14.97;54.06;100669.97;4976384;28;20533;-49
2023/10/15 11:41:04;;;;;;;0.40;0.20;;;;;;;14.36;55.51;100677.69;4975392;28;20544;-48
2023/10/15 11:43:32;;;;;;;0.40;0.20;;;;;;;14.00;57.66;100706.66;4973959;28;20490;-49
2023/10/15 11:46:07;;;;;;;0.40;0.20;;;;;;;11.92;69.64;100730.09;4972550;28;20469;-48
2023/10/15 11:48:34;;;;;;;0.40;0.20;;;;;;;11.48;76.01;100746.28;4970983;28;20463;-48
2023/10/15 11:51:05;;;;;;;0.40;0.20;;;;;;;11.14;85.25;100735.59;4976116;28;20477;-48
2023/10/15 11:53:33;;;;;;;0.40;0.20;;;;;;;10.93;88.76;100728.97;4969888;28;20459;-48